createdAt,value
2022-07-31T00:00:23.913Z,16.10
2022-07-31T00:02:51.886Z,16.00
2022-07-31T00:05:19.708Z,16.00
2022-07-31T00:07:47.580Z,16.00
2022-07-31T00:10:15.486Z,16.10
2022-07-31T00:12:44.788Z,16.00
2022-07-31T00:15:13.140Z,15.90
2022-07-31T00:17:41.081Z,15.90
2022-07-31T00:20:13.329Z,15.90
2022-07-31T00:22:41.332Z,16.00
2022-07-31T00:25:10.549Z,16.00
2022-07-31T00:27:38.385Z,16.10
2022-07-31T00:30:08.479Z,16.00
2022-07-31T00:32:36.322Z,15.70
2022-07-31T00:35:04.201Z,15.70
2022-07-31T00:37:32.649Z,15.70
2022-07-31T00:40:00.487Z,15.70
2022-07-31T00:42:28.334Z,15.70
2022-07-31T00:44:56.194Z,15.70
2022-07-31T00:47:28.367Z,15.60
2022-07-31T00:49:57.708Z,15.50
2022-07-31T00:52:25.548Z,15.50
2022-07-31T00:54:53.441Z,15.40
2022-07-31T00:57:21.304Z,15.60
2022-07-31T00:59:49.164Z,15.60
2022-07-31T01:02:17.002Z,15.70
2022-07-31T01:04:46.168Z,15.70
2022-07-31T01:07:14.044Z,15.90
2022-07-31T01:09:42.523Z,15.90
2022-07-31T01:12:13.292Z,15.90
2022-07-31T01:14:42.740Z,15.90
2022-07-31T01:17:10.747Z,15.80
2022-07-31T01:19:42.843Z,15.80
2022-07-31T01:22:33.930Z,15.60
2022-07-31T01:25:07.179Z,15.60
2022-07-31T01:27:49.549Z,15.60
2022-07-31T01:30:19.279Z,15.60
2022-07-31T01:32:49.473Z,15.60
2022-07-31T01:35:18.960Z,15.60
2022-07-31T01:37:48.517Z,15.60
2022-07-31T01:40:17.713Z,15.70
2022-07-31T01:42:47.660Z,16.00
2022-07-31T01:45:15.516Z,15.90
2022-07-31T01:47:44.708Z,15.80
2022-07-31T01:50:42.343Z,15.90
2022-07-31T01:53:00.860Z,15.80
2022-07-31T01:55:28.714Z,15.80
2022-07-31T01:57:56.846Z,15.70
2022-07-31T02:00:33.255Z,15.80
2022-07-31T02:03:09.923Z,15.80
2022-07-31T02:05:38.321Z,15.80
2022-07-31T02:08:06.721Z,15.90
2022-07-31T02:10:34.633Z,15.80
2022-07-31T02:16:50.498Z,15.90
2022-07-31T02:19:19.704Z,15.80
2022-07-31T02:21:47.467Z,16.00
2022-07-31T02:24:15.209Z,16.00
2022-07-31T02:26:42.944Z,15.90
2022-07-31T02:29:19.210Z,15.90
2022-07-31T02:31:48.327Z,16.00
2022-07-31T02:34:31.489Z,15.90
2022-07-31T02:36:59.304Z,16.00
2022-07-31T02:39:30.457Z,15.90
2022-07-31T02:42:01.672Z,15.80
2022-07-31T02:44:30.152Z,15.80
2022-07-31T02:46:59.552Z,15.70
2022-07-31T02:49:27.702Z,15.70
2022-07-31T02:51:57.249Z,15.90
2022-07-31T02:54:26.409Z,16.00
2022-07-31T02:56:54.242Z,16.00
2022-07-31T02:59:22.974Z,15.80
2022-07-31T03:01:50.790Z,15.80
2022-07-31T03:04:18.599Z,15.80
2022-07-31T03:06:48.508Z,15.80
2022-07-31T03:09:17.695Z,16.00
2022-07-31T03:11:45.493Z,15.90
2022-07-31T03:14:13.572Z,15.90
2022-07-31T03:16:41.692Z,15.90
2022-07-31T03:19:09.654Z,15.90
2022-07-31T03:21:37.448Z,15.90
2022-07-31T03:24:05.718Z,15.80
2022-07-31T03:26:34.845Z,15.80
2022-07-31T03:29:02.845Z,15.80
2022-07-31T03:31:31.122Z,15.80
2022-07-31T03:33:58.919Z,15.80
2022-07-31T03:36:27.138Z,15.80
2022-07-31T03:38:55.204Z,15.80
2022-07-31T03:41:23.103Z,15.70
2022-07-31T03:43:52.258Z,15.70
2022-07-31T03:46:20.908Z,15.90
2022-07-31T03:48:51.866Z,16.10
2022-07-31T03:51:20.109Z,16.00
2022-07-31T03:53:48.012Z,16.10
2022-07-31T03:56:15.814Z,16.10
2022-07-31T03:58:44.789Z,16.00
2022-07-31T04:01:21.079Z,15.80
2022-07-31T04:03:49.741Z,15.80
2022-07-31T04:06:17.591Z,15.90
2022-07-31T04:08:45.450Z,15.90
2022-07-31T04:11:13.279Z,15.90
2022-07-31T04:13:41.109Z,16.00
2022-07-31T04:16:08.934Z,16.10
2022-07-31T04:18:38.093Z,16.00
2022-07-31T04:21:05.917Z,16.10
2022-07-31T04:23:33.792Z,16.10
2022-07-31T04:26:01.636Z,16.00
2022-07-31T04:28:29.441Z,16.10
2022-07-31T04:30:57.368Z,15.90
2022-07-31T04:33:25.186Z,15.80
2022-07-31T04:35:54.588Z,15.90
2022-07-31T04:38:22.623Z,15.90
2022-07-31T04:40:50.527Z,15.90
2022-07-31T04:43:18.528Z,15.80
2022-07-31T04:45:46.389Z,15.90
2022-07-31T04:48:14.214Z,16.00
2022-07-31T04:50:42.147Z,16.00
2022-07-31T04:53:11.516Z,16.10
2022-07-31T04:55:39.331Z,15.90
2022-07-31T04:58:07.141Z,15.90
2022-07-31T05:00:34.956Z,15.90
2022-07-31T05:03:02.771Z,15.90
2022-07-31T05:05:30.623Z,16.20
2022-07-31T05:07:58.425Z,16.40
2022-07-31T05:10:45.450Z,16.20
2022-07-31T05:13:13.317Z,16.10
2022-07-31T05:15:43.921Z,16.20
2022-07-31T05:18:12.872Z,16.10
2022-07-31T05:20:40.743Z,16.20
2022-07-31T05:23:08.541Z,16.30
2022-07-31T05:25:37.746Z,16.40
2022-07-31T05:28:09.644Z,16.30
2022-07-31T05:30:37.846Z,16.30
2022-07-31T05:33:06.855Z,16.30
2022-07-31T05:35:34.735Z,16.30
2022-07-31T05:38:02.549Z,16.40
2022-07-31T05:40:30.598Z,16.60
2022-07-31T05:42:59.743Z,16.70
2022-07-31T05:45:27.546Z,16.70
2022-07-31T05:47:55.377Z,16.80
2022-07-31T05:50:23.281Z,16.70
2022-07-31T05:52:51.099Z,16.80
2022-07-31T05:55:18.959Z,16.80
2022-07-31T05:57:46.795Z,16.90
2022-07-31T06:00:17.046Z,16.90
2022-07-31T06:02:45.449Z,17.00
2022-07-31T06:05:13.293Z,17.00
2022-07-31T06:07:41.515Z,17.10
2022-07-31T06:10:19.291Z,17.20
2022-07-31T06:12:47.143Z,17.30
2022-07-31T06:15:16.353Z,17.30
2022-07-31T06:17:44.963Z,17.40
2022-07-31T06:20:13.098Z,17.40
2022-07-31T06:22:40.950Z,17.40
2022-07-31T06:25:09.753Z,17.50
2022-07-31T06:27:39.963Z,17.40
2022-07-31T06:30:09.962Z,17.40
2022-07-31T06:32:39.159Z,17.50
2022-07-31T06:35:07.743Z,17.60
2022-07-31T06:37:35.571Z,17.50
2022-07-31T06:40:03.431Z,17.70
2022-07-31T06:42:31.308Z,17.60
2022-07-31T06:44:59.233Z,17.60
2022-07-31T06:47:27.130Z,17.60
2022-07-31T06:49:56.341Z,17.40
2022-07-31T06:52:24.275Z,17.50
2022-07-31T06:54:52.090Z,17.60
2022-07-31T06:57:19.902Z,17.60
2022-07-31T06:59:47.791Z,17.60
2022-07-31T07:02:15.587Z,17.70
2022-07-31T07:05:00.013Z,17.80
2022-07-31T07:07:33.052Z,17.80
2022-07-31T07:10:00.847Z,17.80
2022-07-31T07:12:28.747Z,17.90
2022-07-31T07:14:56.535Z,17.90
2022-07-31T07:17:28.665Z,17.90
2022-07-31T07:19:57.164Z,17.90
2022-07-31T07:22:31.339Z,17.90
2022-07-31T07:25:01.649Z,17.90
2022-07-31T07:27:29.493Z,18.00
2022-07-31T07:29:57.630Z,18.00
2022-07-31T07:32:25.452Z,18.00
2022-07-31T07:35:00.225Z,18.00
2022-07-31T07:37:28.760Z,18.10
2022-07-31T07:39:56.622Z,18.00
2022-07-31T07:42:25.779Z,18.00
2022-07-31T07:44:53.783Z,18.10
2022-07-31T07:47:21.639Z,18.10
2022-07-31T07:49:49.427Z,18.00
2022-07-31T07:52:17.266Z,18.00
2022-07-31T07:54:45.058Z,18.10
2022-07-31T07:57:15.677Z,18.10
2022-07-31T07:59:44.812Z,18.20
2022-07-31T08:02:13.628Z,18.30
2022-07-31T08:04:44.681Z,18.20
2022-07-31T08:07:15.285Z,18.30
2022-07-31T08:09:43.122Z,18.40
2022-07-31T08:12:10.932Z,18.50
2022-07-31T08:14:38.737Z,18.50
2022-07-31T08:17:11.925Z,18.60
2022-07-31T08:19:41.908Z,18.70
2022-07-31T08:22:09.833Z,18.70
2022-07-31T08:24:37.652Z,18.80
2022-07-31T08:27:40.416Z,18.80
2022-07-31T08:30:09.702Z,18.90
2022-07-31T08:32:39.069Z,18.90
2022-07-31T08:35:07.866Z,19.20
2022-07-31T08:37:52.552Z,19.50
2022-07-31T08:40:23.486Z,19.60
2022-07-31T08:42:51.290Z,19.60
2022-07-31T08:45:20.083Z,19.60
2022-07-31T08:47:49.302Z,20.00
2022-07-31T08:50:17.764Z,20.00
2022-07-31T08:52:46.278Z,20.20
2022-07-31T08:55:24.871Z,20.20
2022-07-31T08:58:01.929Z,20.30
2022-07-31T09:00:29.774Z,20.70
2022-07-31T09:02:58.901Z,20.90
2022-07-31T09:05:26.719Z,21.00
2022-07-31T09:08:12.195Z,21.20
2022-07-31T09:10:47.717Z,21.40
2022-07-31T09:13:17.907Z,21.40
2022-07-31T09:15:46.389Z,21.30
2022-07-31T09:18:19.793Z,21.40
2022-07-31T09:20:57.075Z,21.50
2022-07-31T09:23:25.074Z,21.40
2022-07-31T09:25:54.016Z,21.50
2022-07-31T09:28:25.126Z,21.70
2022-07-31T09:30:57.047Z,21.90
2022-07-31T09:33:28.158Z,21.90
2022-07-31T09:35:56.158Z,22.20
2022-07-31T09:38:31.124Z,22.60
2022-07-31T09:40:59.384Z,23.00
2022-07-31T09:43:31.445Z,22.90
2022-07-31T09:45:59.871Z,23.00
2022-07-31T09:48:29.115Z,23.30
2022-07-31T09:50:59.977Z,23.80
2022-07-31T09:53:27.888Z,24.20
2022-07-31T09:55:56.598Z,24.30
2022-07-31T09:58:24.630Z,24.20
2022-07-31T10:00:53.880Z,24.20
2022-07-31T10:03:21.967Z,24.10
2022-07-31T10:05:51.145Z,24.00
2022-07-31T10:08:18.957Z,23.90
2022-07-31T10:10:47.623Z,23.80
2022-07-31T10:13:16.304Z,23.70
2022-07-31T10:15:46.062Z,24.10
2022-07-31T10:18:14.027Z,24.20
2022-07-31T10:20:43.122Z,24.00
2022-07-31T10:23:15.321Z,23.80
2022-07-31T10:25:50.779Z,23.90
2022-07-31T10:28:22.011Z,24.00
2022-07-31T10:30:50.046Z,24.10
2022-07-31T10:33:42.601Z,24.00
2022-07-31T10:36:07.999Z,24.20
2022-07-31T10:38:38.493Z,24.10
2022-07-31T10:41:08.877Z,23.70
2022-07-31T10:43:40.494Z,23.40
2022-07-31T10:46:08.312Z,23.40
2022-07-31T10:48:36.150Z,23.30
2022-07-31T10:51:04.419Z,23.10
2022-07-31T10:53:50.278Z,23.10
2022-07-31T10:56:21.390Z,23.20
2022-07-31T10:58:50.108Z,23.30
2022-07-31T11:01:18.148Z,23.20
2022-07-31T11:03:47.300Z,23.30
2022-07-31T11:06:16.040Z,23.20
2022-07-31T11:08:44.484Z,23.20
2022-07-31T11:11:12.353Z,23.20
2022-07-31T11:13:48.897Z,23.10
2022-07-31T11:16:16.903Z,23.10
2022-07-31T11:18:46.464Z,23.10
2022-07-31T11:21:36.957Z,23.10
2022-07-31T11:24:05.722Z,23.00
2022-07-31T11:26:42.068Z,23.10
2022-07-31T11:30:00.509Z,23.20
2022-07-31T11:32:01.288Z,23.40
2022-07-31T11:34:29.178Z,23.50
2022-07-31T11:36:57.007Z,23.70
2022-07-31T11:39:36.757Z,23.80
2022-07-31T11:42:07.678Z,23.80
2022-07-31T11:44:37.065Z,23.90
2022-07-31T11:47:56.073Z,23.90
2022-07-31T11:50:01.949Z,23.90
2022-07-31T11:52:31.346Z,23.90
2022-07-31T11:55:09.094Z,23.80
2022-07-31T11:57:52.527Z,24.00
2022-07-31T12:00:29.279Z,24.20
2022-07-31T12:02:58.018Z,24.40
2022-07-31T12:05:39.200Z,24.20
2022-07-31T12:08:07.497Z,24.20
2022-07-31T12:10:35.322Z,24.20
2022-07-31T12:13:03.325Z,24.20
2022-07-31T12:15:32.479Z,24.30
2022-07-31T12:18:03.713Z,24.50
2022-07-31T12:20:36.345Z,24.70
2022-07-31T12:23:06.104Z,25.00
2022-07-31T12:25:45.527Z,25.00
2022-07-31T12:28:14.459Z,25.10
2022-07-31T12:30:43.662Z,25.30
2022-07-31T12:33:12.422Z,25.00
2022-07-31T12:35:56.518Z,24.90
2022-07-31T12:38:45.800Z,24.90
2022-07-31T12:41:13.677Z,25.00
2022-07-31T12:43:50.984Z,24.90
2022-07-31T12:46:22.038Z,25.00
2022-07-31T12:48:50.256Z,25.00
2022-07-31T12:51:20.228Z,24.70
2022-07-31T12:54:07.940Z,24.80
2022-07-31T12:56:35.800Z,24.80
2022-07-31T12:59:03.699Z,25.20
2022-07-31T13:01:33.018Z,25.60
2022-07-31T13:04:00.984Z,25.60
2022-07-31T13:06:31.315Z,25.60
2022-07-31T13:08:59.132Z,25.60
2022-07-31T13:11:28.915Z,25.90
2022-07-31T13:13:58.267Z,26.40
2022-07-31T13:16:26.060Z,26.20
2022-07-31T13:18:55.300Z,26.20
2022-07-31T13:21:23.202Z,26.30
2022-07-31T13:23:54.341Z,26.10
2022-07-31T13:26:23.886Z,26.50
2022-07-31T13:28:51.685Z,26.20
2022-07-31T13:31:19.500Z,26.20
2022-07-31T13:33:47.320Z,26.20
2022-07-31T13:36:16.480Z,26.20
2022-07-31T13:38:44.290Z,26.50
2022-07-31T13:41:30.795Z,26.40
2022-07-31T13:43:59.550Z,26.00
2022-07-31T13:46:28.544Z,25.70
2022-07-31T13:48:57.209Z,25.60
2022-07-31T13:51:28.717Z,25.50
2022-07-31T13:53:56.976Z,25.50
2022-07-31T13:56:38.800Z,25.90
2022-07-31T13:59:11.299Z,26.00
2022-07-31T14:02:03.988Z,25.90
2022-07-31T14:04:30.274Z,25.60
2022-07-31T14:07:04.267Z,25.60
2022-07-31T14:09:34.114Z,25.70
2022-07-31T14:12:04.454Z,25.80
2022-07-31T14:14:32.828Z,25.70
2022-07-31T14:17:00.663Z,25.60
2022-07-31T14:19:28.596Z,25.70
2022-07-31T14:21:57.492Z,25.80
2022-07-31T14:24:26.895Z,26.00
2022-07-31T14:26:54.835Z,25.90
2022-07-31T14:29:22.740Z,25.80
2022-07-31T14:31:50.868Z,25.60
2022-07-31T14:34:18.687Z,25.50
2022-07-31T14:36:46.505Z,25.40
2022-07-31T14:39:14.337Z,25.30
2022-07-31T14:41:43.747Z,25.20
2022-07-31T14:44:11.570Z,25.10
2022-07-31T14:46:39.365Z,25.10
2022-07-31T14:49:08.601Z,25.10
2022-07-31T14:51:36.525Z,25.20
2022-07-31T14:54:05.084Z,25.20
2022-07-31T14:56:59.591Z,25.20
2022-07-31T14:59:22.843Z,25.20
2022-07-31T15:01:50.710Z,25.20
2022-07-31T15:04:18.534Z,25.40
2022-07-31T15:06:56.248Z,25.50
2022-07-31T15:09:31.013Z,25.40
2022-07-31T15:12:01.295Z,25.30
2022-07-31T15:14:31.411Z,25.20
2022-07-31T15:16:59.300Z,25.20
2022-07-31T15:19:27.162Z,25.20
2022-07-31T15:22:10.387Z,25.20
2022-07-31T15:24:49.146Z,25.10
2022-07-31T15:27:17.913Z,25.00
2022-07-31T15:30:05.865Z,25.00
2022-07-31T15:32:35.596Z,25.00
2022-07-31T15:35:03.479Z,25.00
2022-07-31T15:37:31.272Z,25.00
2022-07-31T15:40:02.062Z,25.00
2022-07-31T15:42:31.827Z,25.10
2022-07-31T15:45:01.132Z,25.10
2022-07-31T15:47:29.072Z,25.10
2022-07-31T15:49:56.886Z,24.90
2022-07-31T15:52:24.901Z,24.90
2022-07-31T15:54:52.995Z,24.90
2022-07-31T15:57:21.166Z,24.80
2022-07-31T15:59:49.511Z,24.90
2022-07-31T16:02:18.863Z,24.90
2022-07-31T16:04:53.317Z,25.00
2022-07-31T16:08:29.870Z,25.20
2022-07-31T16:10:15.379Z,25.30
2022-07-31T16:12:45.551Z,25.20
2022-07-31T16:15:13.475Z,25.20
2022-07-31T16:17:43.056Z,25.40
2022-07-31T16:20:12.398Z,25.40
2022-07-31T16:22:41.085Z,25.40
2022-07-31T16:25:09.816Z,25.40
2022-07-31T16:27:37.883Z,25.20
2022-07-31T16:30:06.497Z,25.20
2022-07-31T16:32:34.484Z,25.10
2022-07-31T16:35:03.682Z,25.00
2022-07-31T16:37:50.059Z,25.00
2022-07-31T16:40:29.271Z,25.00
2022-07-31T16:43:01.309Z,24.90
2022-07-31T16:45:29.649Z,24.90
2022-07-31T16:47:57.510Z,24.90
2022-07-31T16:50:27.099Z,24.90
2022-07-31T16:52:55.442Z,25.00
2022-07-31T16:55:46.239Z,24.90
2022-07-31T16:58:12.176Z,24.90
2022-07-31T17:00:40.222Z,24.80
2022-07-31T17:03:59.268Z,24.80
2022-07-31T17:05:57.325Z,24.70
2022-07-31T17:08:25.125Z,24.70
2022-07-31T17:10:54.868Z,24.80
2022-07-31T17:13:22.905Z,24.70
2022-07-31T17:15:50.797Z,24.70
2022-07-31T17:18:18.793Z,24.70
2022-07-31T17:20:47.859Z,24.70
2022-07-31T17:23:18.113Z,24.60
2022-07-31T17:26:06.340Z,24.60
2022-07-31T17:28:34.169Z,24.50
2022-07-31T17:31:02.566Z,24.50
2022-07-31T17:33:54.636Z,24.40
2022-07-31T17:36:18.262Z,24.40
2022-07-31T17:38:47.433Z,24.40
2022-07-31T17:41:24.990Z,24.40
2022-07-31T17:43:53.689Z,24.30
2022-07-31T17:46:28.278Z,24.20
2022-07-31T17:49:05.781Z,24.10
2022-07-31T17:51:33.921Z,24.20
2022-07-31T17:54:03.054Z,24.10
2022-07-31T17:56:30.978Z,24.00
2022-07-31T17:59:04.371Z,24.00
2022-07-31T18:01:33.057Z,23.90
2022-07-31T18:04:00.965Z,23.80
2022-07-31T18:06:28.850Z,23.70
2022-07-31T18:08:56.770Z,23.70
2022-07-31T18:11:26.133Z,23.70
2022-07-31T18:13:55.478Z,23.60
2022-07-31T18:16:24.707Z,23.60
2022-07-31T18:18:54.570Z,23.50
2022-07-31T18:21:25.960Z,23.60
2022-07-31T18:23:53.757Z,23.50
2022-07-31T18:26:22.500Z,23.40
2022-07-31T18:28:51.671Z,23.30
2022-07-31T18:31:34.103Z,23.40
2022-07-31T18:34:03.934Z,23.40
2022-07-31T18:36:32.052Z,23.40
2022-07-31T18:38:59.916Z,23.30
2022-07-31T18:41:27.769Z,23.20
2022-07-31T18:43:57.018Z,23.20
2022-07-31T18:46:25.139Z,23.10
2022-07-31T18:48:55.570Z,23.10
2022-07-31T18:51:24.142Z,23.00
2022-07-31T18:53:52.021Z,22.80
2022-07-31T18:56:22.632Z,22.90
2022-07-31T18:58:50.914Z,22.80
2022-07-31T19:01:20.164Z,22.80
2022-07-31T19:03:48.062Z,22.70
2022-07-31T19:06:15.886Z,22.70
2022-07-31T19:08:43.736Z,22.60
2022-07-31T19:11:12.168Z,22.70
2022-07-31T19:13:40.017Z,22.60
2022-07-31T19:16:08.437Z,22.60
2022-07-31T19:18:39.806Z,22.60
2022-07-31T19:21:23.382Z,22.40
2022-07-31T19:23:55.712Z,22.30
2022-07-31T19:26:23.528Z,22.20
2022-07-31T19:28:51.384Z,22.20
2022-07-31T19:31:19.187Z,22.30
2022-07-31T19:33:48.340Z,22.20
2022-07-31T19:36:16.307Z,22.10
2022-07-31T19:38:45.066Z,22.10
2022-07-31T19:41:13.745Z,22.10
2022-07-31T19:43:41.604Z,22.10
2022-07-31T19:46:11.894Z,22.10
2022-07-31T19:48:41.090Z,22.10
2022-07-31T19:51:10.467Z,22.10
2022-07-31T19:53:38.405Z,22.10
2022-07-31T19:56:06.498Z,22.00
2022-07-31T19:58:34.899Z,22.00
2022-07-31T20:01:03.128Z,21.90
2022-07-31T20:03:31.105Z,21.80
2022-07-31T20:05:58.968Z,21.80
2022-07-31T20:08:31.968Z,21.80
2022-07-31T20:11:03.237Z,21.80
2022-07-31T20:13:31.489Z,21.70
2022-07-31T20:15:59.628Z,21.70
2022-07-31T20:18:28.795Z,21.70
2022-07-31T20:20:57.654Z,21.70
2022-07-31T20:23:25.635Z,21.60
2022-07-31T20:25:54.846Z,21.50
2022-07-31T20:28:22.673Z,21.60
2022-07-31T20:30:50.487Z,21.60
2022-07-31T20:33:18.330Z,21.50
2022-07-31T20:35:49.363Z,21.50
2022-07-31T20:38:17.960Z,21.40
2022-07-31T20:40:52.843Z,21.40
2022-07-31T20:43:23.493Z,21.50
2022-07-31T20:45:51.397Z,21.50
2022-07-31T20:48:20.950Z,21.50
2022-07-31T20:50:48.910Z,21.40
2022-07-31T20:53:19.428Z,21.40
2022-07-31T20:55:49.717Z,21.50
2022-07-31T20:58:17.976Z,21.50
2022-07-31T21:00:47.496Z,21.50
2022-07-31T21:03:15.614Z,21.50
2022-07-31T21:05:43.474Z,21.40
2022-07-31T21:08:11.950Z,21.40
2022-07-31T21:10:39.882Z,21.40
2022-07-31T21:13:07.711Z,21.40
2022-07-31T21:15:42.525Z,21.40
2022-07-31T21:18:13.996Z,21.20
2022-07-31T21:20:52.273Z,21.20
2022-07-31T21:23:21.519Z,21.20
2022-07-31T21:25:49.662Z,21.30
2022-07-31T21:28:17.951Z,21.40
2022-07-31T21:30:46.020Z,21.30
2022-07-31T21:33:15.301Z,21.20
2022-07-31T21:35:43.703Z,21.20
2022-07-31T21:38:12.493Z,21.20
2022-07-31T21:40:40.709Z,21.10
2022-07-31T21:43:08.954Z,21.10
2022-07-31T21:45:55.299Z,21.20
2022-07-31T21:48:25.761Z,21.20
2022-07-31T21:50:53.879Z,21.20
2022-07-31T21:53:21.816Z,21.10
2022-07-31T21:55:49.626Z,21.10
2022-07-31T21:58:17.602Z,21.00
2022-07-31T22:00:45.620Z,21.10
2022-07-31T22:03:13.539Z,21.10
2022-07-31T22:06:00.168Z,21.00
2022-07-31T22:08:28.000Z,20.90
2022-07-31T22:10:55.808Z,20.80
2022-07-31T22:13:23.655Z,20.80
2022-07-31T22:16:00.176Z,20.70
2022-07-31T22:18:29.050Z,20.60
2022-07-31T22:20:58.512Z,20.50
2022-07-31T22:23:27.036Z,20.40
2022-07-31T22:25:55.009Z,20.40
2022-07-31T22:28:23.124Z,20.40
2022-07-31T22:30:51.331Z,20.40
2022-07-31T22:33:19.297Z,20.40
2022-07-31T22:35:59.524Z,20.50
2022-07-31T22:38:30.162Z,20.50
2022-07-31T22:40:58.393Z,20.60
2022-07-31T22:44:12.299Z,20.60
2022-07-31T22:46:14.241Z,20.60
2022-07-31T22:48:42.187Z,20.60
2022-07-31T22:51:12.875Z,20.60
2022-07-31T22:53:44.382Z,20.60
2022-07-31T22:56:12.236Z,20.60
2022-07-31T22:58:40.076Z,20.60
2022-07-31T23:01:07.935Z,20.50
2022-07-31T23:03:35.731Z,20.40
2022-07-31T23:06:30.597Z,20.40
2022-07-31T23:08:54.781Z,20.30
2022-07-31T23:11:23.469Z,20.40
2022-07-31T23:13:51.445Z,20.40
2022-07-31T23:16:20.305Z,20.50
2022-07-31T23:18:48.289Z,20.50
2022-07-31T23:21:16.093Z,20.40
2022-07-31T23:23:48.068Z,20.30
2022-07-31T23:26:18.911Z,20.40
2022-07-31T23:28:46.929Z,20.40
2022-07-31T23:31:14.837Z,20.30
2022-07-31T23:33:42.879Z,20.30
2022-07-31T23:36:10.721Z,20.20
2022-07-31T23:38:38.541Z,20.10
2022-07-31T23:41:06.410Z,20.20
2022-07-31T23:43:34.615Z,20.10
2022-07-31T23:46:02.478Z,20.10
2022-07-31T23:48:30.433Z,20.20
2022-07-31T23:50:58.898Z,20.20
2022-07-31T23:53:26.781Z,20.20
2022-07-31T23:55:54.618Z,20.10
2022-07-31T23:58:22.492Z,20.20
